sensor_id;sensor_type;location;lat;lon;timestamp;pressure;altitude;pressure_sealevel;temperature;humidity
9035;BME280;4552;43.422;24.592;2023-03-19T00:09:35;100689.38;;;4.73;86.95
9035;BME280;4552;43.422;24.592;2023-03-19T00:12:02;100710.63;;;4.97;87.03
9035;BME280;4552;43.422;24.592;2023-03-19T00:14:29;100697.69;;;4.98;85.68
9035;BME280;4552;43.422;24.592;2023-03-19T00:16:59;100693.00;;;4.81;85.31
9035;BME280;4552;43.422;24.592;2023-03-19T00:19:26;100691.81;;;4.67;84.58
9035;BME280;4552;43.422;24.592;2023-03-19T00:21:53;100696.22;;;4.71;83.61
9035;BME280;4552;43.422;24.592;2023-03-19T00:24:20;100696.03;;;4.62;85.58
9035;BME280;4552;43.422;24.592;2023-03-19T00:26:49;100681.13;;;4.52;87.84
9035;BME280;4552;43.422;24.592;2023-03-19T00:29:16;100674.53;;;4.29;87.98
9035;BME280;4552;43.422;24.592;2023-03-19T00:31:43;100668.44;;;4.27;88.62
9035;BME280;4552;43.422;24.592;2023-03-19T00:34:11;100663.38;;;4.31;89.67
9035;BME280;4552;43.422;24.592;2023-03-19T00:36:38;100669.91;;;4.53;89.88
9035;BME280;4552;43.422;24.592;2023-03-19T00:39:05;100666.97;;;4.38;89.04
9035;BME280;4552;43.422;24.592;2023-03-19T00:41:33;100661.88;;;4.41;89.64
9035;BME280;4552;43.422;24.592;2023-03-19T00:44:02;100659.47;;;4.50;87.61
9035;BME280;4552;43.422;24.592;2023-03-19T00:46:30;100666.44;;;4.51;85.50
9035;BME280;4552;43.422;24.592;2023-03-19T00:48:57;100675.91;;;4.50;85.46
9035;BME280;4552;43.422;24.592;2023-03-19T00:51:24;100668.38;;;4.61;85.96
9035;BME280;4552;43.422;24.592;2023-03-19T00:53:51;100663.91;;;4.54;85.06
9035;BME280;4552;43.422;24.592;2023-03-19T00:56:18;100655.56;;;4.68;84.00
9035;BME280;4552;43.422;24.592;2023-03-19T00:58:46;100660.69;;;4.65;83.37
9035;BME280;4552;43.422;24.592;2023-03-19T01:22:41;100633.63;;;4.53;85.00
9035;BME280;4552;43.422;24.592;2023-03-19T01:25:09;100633.44;;;4.44;85.44
9035;BME280;4552;43.422;24.592;2023-03-19T01:27:37;100631.69;;;4.43;85.57
9035;BME280;4552;43.422;24.592;2023-03-19T01:30:06;100636.81;;;4.40;86.54
9035;BME280;4552;43.422;24.592;2023-03-19T01:32:33;100644.75;;;4.47;87.25
9035;BME280;4552;43.422;24.592;2023-03-19T01:35:00;100645.25;;;4.71;86.11
9035;BME280;4552;43.422;24.592;2023-03-19T01:37:27;100640.44;;;4.89;84.24
9035;BME280;4552;43.422;24.592;2023-03-19T01:39:55;100637.69;;;4.82;84.15
9035;BME280;4552;43.422;24.592;2023-03-19T01:42:22;100629.63;;;4.68;85.04
9035;BME280;4552;43.422;24.592;2023-03-19T01:44:50;100651.50;;;4.81;85.53
9035;BME280;4552;43.422;24.592;2023-03-19T01:47:21;100646.47;;;4.87;85.04
9035;BME280;4552;43.422;24.592;2023-03-19T01:49:52;100620.41;;;4.81;84.95
9035;BME280;4552;43.422;24.592;2023-03-19T01:52:20;100635.97;;;4.81;85.21
9035;BME280;4552;43.422;24.592;2023-03-19T01:54:49;100632.44;;;4.79;84.62
9035;BME280;4552;43.422;24.592;2023-03-19T01:57:21;100628.88;;;4.74;85.79
9035;BME280;4552;43.422;24.592;2023-03-19T01:59:50;100629.22;;;4.89;84.99
9035;BME280;4552;43.422;24.592;2023-03-19T02:29:27;100633.28;;;4.38;89.16
9035;BME280;4552;43.422;24.592;2023-03-19T02:31:54;100638.00;;;4.54;88.80
9035;BME280;4552;43.422;24.592;2023-03-19T02:34:38;100644.00;;;4.53;88.42
9035;BME280;4552;43.422;24.592;2023-03-19T02:37:12;100635.22;;;4.48;88.15
9035;BME280;4552;43.422;24.592;2023-03-19T02:39:48;100634.75;;;4.27;88.23
9035;BME280;4552;43.422;24.592;2023-03-19T02:42:18;100634.22;;;4.03;89.30
9035;BME280;4552;43.422;24.592;2023-03-19T02:47:55;100632.78;;;3.80;90.81
9035;BME280;4552;43.422;24.592;2023-03-19T02:50:22;100601.97;;;3.54;91.29
9035;BME280;4552;43.422;24.592;2023-03-19T02:52:49;100630.31;;;3.50;92.42
9035;BME280;4552;43.422;24.592;2023-03-19T02:55:19;100629.13;;;3.37;92.95
9035;BME280;4552;43.422;24.592;2023-03-19T02:57:46;100627.00;;;3.55;91.83
9035;BME280;4552;43.422;24.592;2023-03-19T03:00:14;100637.25;;;3.51;92.07
9035;BME280;4552;43.422;24.592;2023-03-19T03:29:37;100648.28;;;3.13;93.45
9035;BME280;4552;43.422;24.592;2023-03-19T03:32:05;100637.38;;;2.92;92.94
9035;BME280;4552;43.422;24.592;2023-03-19T03:34:32;100641.66;;;2.91;94.00
9035;BME280;4552;43.422;24.592;2023-03-19T03:36:59;100638.78;;;2.81;94.55
9035;BME280;4552;43.422;24.592;2023-03-19T03:39:26;100634.28;;;2.75;94.24
9035;BME280;4552;43.422;24.592;2023-03-19T03:41:53;100645.97;;;2.61;95.26
9035;BME280;4552;43.422;24.592;2023-03-19T03:44:20;100644.53;;;2.72;94.78
9035;BME280;4552;43.422;24.592;2023-03-19T05:05:38;100652.44;;;4.07;90.93
9035;BME280;4552;43.422;24.592;2023-03-19T05:08:06;100652.41;;;4.06;90.07
9035;BME280;4552;43.422;24.592;2023-03-19T05:10:34;100656.44;;;3.95;89.94
9035;BME280;4552;43.422;24.592;2023-03-19T05:13:01;100656.09;;;3.80;91.06
9035;BME280;4552;43.422;24.592;2023-03-19T05:15:30;100659.22;;;4.02;91.76
9035;BME280;4552;43.422;24.592;2023-03-19T05:17:57;100657.44;;;4.00;91.03
9035;BME280;4552;43.422;24.592;2023-03-19T05:20:24;100667.97;;;4.07;91.05
9035;BME280;4552;43.422;24.592;2023-03-19T05:22:53;100659.72;;;4.22;90.95
9035;BME280;4552;43.422;24.592;2023-03-19T05:25:20;100657.25;;;4.28;91.20
9035;BME280;4552;43.422;24.592;2023-03-19T05:27:47;100647.31;;;4.46;90.86
9035;BME280;4552;43.422;24.592;2023-03-19T05:30:14;100655.66;;;4.73;90.44
9035;BME280;4552;43.422;24.592;2023-03-19T05:39:30;100642.44;;;5.47;88.24
9035;BME280;4552;43.422;24.592;2023-03-19T05:41:57;100650.44;;;5.58;87.58
9035;BME280;4552;43.422;24.592;2023-03-19T05:44:24;100635.50;;;5.46;86.58
9035;BME280;4552;43.422;24.592;2023-03-19T06:07:04;100641.16;;;6.25;81.72
9035;BME280;4552;43.422;24.592;2023-03-19T06:09:31;100641.28;;;6.34;81.23
9035;BME280;4552;43.422;24.592;2023-03-19T06:11:58;100635.66;;;6.64;81.01
9035;BME280;4552;43.422;24.592;2023-03-19T06:14:25;100642.00;;;6.84;79.26
9035;BME280;4552;43.422;24.592;2023-03-19T06:16:52;100644.13;;;7.17;78.37
9035;BME280;4552;43.422;24.592;2023-03-19T06:19:19;100638.06;;;7.19;76.87
9035;BME280;4552;43.422;24.592;2023-03-19T06:21:47;100642.69;;;7.44;76.40
9035;BME280;4552;43.422;24.592;2023-03-19T06:24:15;100643.44;;;7.36;75.61
9035;BME280;4552;43.422;24.592;2023-03-19T06:26:42;100640.94;;;7.45;76.12
9035;BME280;4552;43.422;24.592;2023-03-19T06:29:09;100634.09;;;7.56;75.49
9035;BME280;4552;43.422;24.592;2023-03-19T06:31:36;100649.94;;;7.77;74.39
9035;BME280;4552;43.422;24.592;2023-03-19T06:34:06;100643.03;;;7.80;73.97
9035;BME280;4552;43.422;24.592;2023-03-19T06:36:32;100642.09;;;7.74;74.82
9035;BME280;4552;43.422;24.592;2023-03-19T06:38:59;100641.34;;;7.87;73.99
9035;BME280;4552;43.422;24.592;2023-03-19T06:41:28;100631.97;;;8.07;73.23
9035;BME280;4552;43.422;24.592;2023-03-19T06:43:56;100632.09;;;8.23;72.26
9035;BME280;4552;43.422;24.592;2023-03-19T06:46:23;100639.25;;;8.54;72.08
9035;BME280;4552;43.422;24.592;2023-03-19T06:48:53;100641.94;;;8.68;70.37
9035;BME280;4552;43.422;24.592;2023-03-19T06:51:20;100644.63;;;8.86;70.36
9035;BME280;4552;43.422;24.592;2023-03-19T06:53:47;100636.78;;;8.83;69.27
9035;BME280;4552;43.422;24.592;2023-03-19T06:56:20;100634.25;;;9.04;70.14
9035;BME280;4552;43.422;24.592;2023-03-19T06:58:48;100643.06;;;9.32;68.33
9035;BME280;4552;43.422;24.592;2023-03-19T07:43:16;100631.69;;;10.83;69.68
9035;BME280;4552;43.422;24.592;2023-03-19T07:45:46;100629.91;;;10.85;68.93
9035;BME280;4552;43.422;24.592;2023-03-19T07:48:13;100626.44;;;10.86;68.57
9035;BME280;4552;43.422;24.592;2023-03-19T07:50:40;100618.59;;;10.85;68.60
9035;BME280;4552;43.422;24.592;2023-03-19T07:53:07;100618.56;;;10.94;67.77
9035;BME280;4552;43.422;24.592;2023-03-19T07:55:33;100639.50;;;10.97;67.11
9035;BME280;4552;43.422;24.592;2023-03-19T07:58:02;100632.47;;;11.05;66.87
9035;BME280;4552;43.422;24.592;2023-03-19T08:00:30;100625.47;;;11.05;66.24
9035;BME280;4552;43.422;24.592;2023-03-19T08:02:57;100628.81;;;11.36;66.31
9035;BME280;4552;43.422;24.592;2023-03-19T08:05:24;100631.38;;;11.45;63.58
9035;BME280;4552;43.422;24.592;2023-03-19T08:07:51;100633.13;;;11.46;63.09
9035;BME280;4552;43.422;24.592;2023-03-19T08:10:18;100632.22;;;11.50;62.23
9035;BME280;4552;43.422;24.592;2023-03-19T08:12:46;100626.94;;;11.56;61.89
9035;BME280;4552;43.422;24.592;2023-03-19T08:15:13;100632.16;;;11.63;61.64
9035;BME280;4552;43.422;24.592;2023-03-19T08:17:41;100632.06;;;11.74;59.43
9035;BME280;4552;43.422;24.592;2023-03-19T08:20:10;100637.28;;;11.80;58.54
9035;BME280;4552;43.422;24.592;2023-03-19T08:22:38;100626.91;;;11.59;59.06
9035;BME280;4552;43.422;24.592;2023-03-19T08:25:07;100629.56;;;11.56;58.09
9035;BME280;4552;43.422;24.592;2023-03-19T08:27:35;100632.19;;;11.53;57.62
9035;BME280;4552;43.422;24.592;2023-03-19T08:30:03;100629.50;;;11.62;58.29
9035;BME280;4552;43.422;24.592;2023-03-19T08:32:31;100627.81;;;11.62;58.44
9035;BME280;4552;43.422;24.592;2023-03-19T08:35:00;100632.13;;;11.62;57.91
9035;BME280;4552;43.422;24.592;2023-03-19T08:37:27;100632.84;;;11.89;57.45
9035;BME280;4552;43.422;24.592;2023-03-19T08:39:54;100628.38;;;12.02;56.55
9035;BME280;4552;43.422;24.592;2023-03-19T08:42:21;100615.31;;;11.94;56.91
9035;BME280;4552;43.422;24.592;2023-03-19T08:44:48;100633.47;;;12.17;56.72
9035;BME280;4552;43.422;24.592;2023-03-19T10:04:14;100561.19;;;13.89;52.51
9035;BME280;4552;43.422;24.592;2023-03-19T10:06:45;100554.38;;;13.74;52.24
9035;BME280;4552;43.422;24.592;2023-03-19T10:09:29;100544.31;;;13.99;52.37
9035;BME280;4552;43.422;24.592;2023-03-19T10:12:15;100553.91;;;14.02;52.07
9035;BME280;4552;43.422;24.592;2023-03-19T10:15:00;100543.38;;;14.02;52.60
9035;BME280;4552;43.422;24.592;2023-03-19T10:20:52;100547.25;;;13.82;53.03
9035;BME280;4552;43.422;24.592;2023-03-19T10:23:41;100533.13;;;13.86;53.67
9035;BME280;4552;43.422;24.592;2023-03-19T10:26:12;100545.13;;;14.03;52.32
9035;BME280;4552;43.422;24.592;2023-03-19T10:28:41;100536.56;;;13.91;52.19
9035;BME280;4552;43.422;24.592;2023-03-19T10:31:24;100538.88;;;14.08;52.06
9035;BME280;4552;43.422;24.592;2023-03-19T11:14:17;100468.81;;;14.47;49.73
9035;BME280;4552;43.422;24.592;2023-03-19T11:16:50;100463.47;;;14.50;50.22
9035;BME280;4552;43.422;24.592;2023-03-19T12:55:34;100340.13;;;16.29;46.75
9035;BME280;4552;43.422;24.592;2023-03-19T12:58:07;100341.41;;;16.43;46.03
9035;BME280;4552;43.422;24.592;2023-03-19T13:00:43;100337.88;;;16.46;45.55
9035;BME280;4552;43.422;24.592;2023-03-19T13:03:15;100335.44;;;16.38;46.16
9035;BME280;4552;43.422;24.592;2023-03-19T13:05:47;100339.53;;;16.48;45.79
9035;BME280;4552;43.422;24.592;2023-03-19T13:08:22;100329.91;;;16.47;45.51
9035;BME280;4552;43.422;24.592;2023-03-19T13:10:54;100334.88;;;16.56;45.31
9035;BME280;4552;43.422;24.592;2023-03-19T13:13:30;100317.56;;;16.46;45.79
9035;BME280;4552;43.422;24.592;2023-03-19T13:16:07;100326.31;;;16.48;45.62
9035;BME280;4552;43.422;24.592;2023-03-19T13:18:40;100324.69;;;16.15;46.05
9035;BME280;4552;43.422;24.592;2023-03-19T13:21:25;100315.00;;;16.43;45.67
9035;BME280;4552;43.422;24.592;2023-03-19T13:24:02;100312.09;;;16.23;45.69
9035;BME280;4552;43.422;24.592;2023-03-19T13:26:32;100311.53;;;16.14;45.79
9035;BME280;4552;43.422;24.592;2023-03-19T13:29:01;100323.88;;;16.13;46.28
9035;BME280;4552;43.422;24.592;2023-03-19T13:31:33;100312.38;;;16.14;46.34
9035;BME280;4552;43.422;24.592;2023-03-19T13:34:03;100316.97;;;16.09;46.57
9035;BME280;4552;43.422;24.592;2023-03-19T13:36:35;100298.09;;;15.92;46.48
9035;BME280;4552;43.422;24.592;2023-03-19T13:39:11;100307.38;;;16.05;46.50
9035;BME280;4552;43.422;24.592;2023-03-19T13:41:53;100306.09;;;16.47;45.95
9035;BME280;4552;43.422;24.592;2023-03-19T13:44:32;100305.81;;;16.56;45.83
9035;BME280;4552;43.422;24.592;2023-03-19T13:47:00;100299.94;;;16.74;45.40
9035;BME280;4552;43.422;24.592;2023-03-19T13:49:30;100297.28;;;16.74;45.20
9035;BME280;4552;43.422;24.592;2023-03-19T13:52:01;100293.09;;;16.93;44.74
9035;BME280;4552;43.422;24.592;2023-03-19T14:25:52;100263.94;;;16.43;45.44
9035;BME280;4552;43.422;24.592;2023-03-19T14:28:26;100269.72;;;16.55;45.10
9035;BME280;4552;43.422;24.592;2023-03-19T14:30:55;100268.91;;;16.53;45.23
9035;BME280;4552;43.422;24.592;2023-03-19T14:33:25;100267.22;;;16.51;45.33
9035;BME280;4552;43.422;24.592;2023-03-19T14:35:55;100259.50;;;16.43;45.04
9035;BME280;4552;43.422;24.592;2023-03-19T14:38:31;100255.41;;;16.62;45.04
9035;BME280;4552;43.422;24.592;2023-03-19T14:41:03;100264.13;;;16.64;44.44
9035;BME280;4552;43.422;24.592;2023-03-19T14:43:44;100257.63;;;16.74;44.69
9035;BME280;4552;43.422;24.592;2023-03-19T14:46:23;100244.72;;;16.65;44.63
9035;BME280;4552;43.422;24.592;2023-03-19T14:49:25;100241.16;;;16.66;44.50
9035;BME280;4552;43.422;24.592;2023-03-19T14:52:01;100237.97;;;16.81;44.23
9035;BME280;4552;43.422;24.592;2023-03-19T14:54:33;100239.53;;;16.88;43.79
9035;BME280;4552;43.422;24.592;2023-03-19T14:57:15;100242.84;;;16.93;43.95
9035;BME280;4552;43.422;24.592;2023-03-19T14:59:43;100240.03;;;16.98;44.06
9035;BME280;4552;43.422;24.592;2023-03-19T15:02:33;100241.84;;;16.97;43.89
9035;BME280;4552;43.422;24.592;2023-03-19T16:23:41;100278.03;;;15.56;48.14
9035;BME280;4552;43.422;24.592;2023-03-19T16:26:18;100271.28;;;15.46;48.22
9035;BME280;4552;43.422;24.592;2023-03-19T16:28:50;100268.41;;;15.55;48.82
9035;BME280;4552;43.422;24.592;2023-03-19T16:31:23;100260.84;;;15.43;48.68
9035;BME280;4552;43.422;24.592;2023-03-19T16:33:54;100265.09;;;15.47;49.40
9035;BME280;4552;43.422;24.592;2023-03-19T16:36:22;100249.84;;;15.26;49.43
9035;BME280;4552;43.422;24.592;2023-03-19T16:38:56;100264.44;;;15.39;49.69
9035;BME280;4552;43.422;24.592;2023-03-19T16:41:25;100258.63;;;15.26;49.79
9035;BME280;4552;43.422;24.592;2023-03-19T16:44:09;100264.75;;;15.27;49.96
9035;BME280;4552;43.422;24.592;2023-03-19T16:46:38;100257.75;;;15.26;50.06
9035;BME280;4552;43.422;24.592;2023-03-19T16:49:06;100269.72;;;15.05;50.30
9035;BME280;4552;43.422;24.592;2023-03-19T16:51:33;100266.94;;;14.79;50.65
9035;BME280;4552;43.422;24.592;2023-03-19T16:54:02;100271.13;;;14.53;51.71
9035;BME280;4552;43.422;24.592;2023-03-19T16:56:31;100259.78;;;14.49;52.09
9035;BME280;4552;43.422;24.592;2023-03-19T16:59:00;100273.66;;;14.56;52.30
9035;BME280;4552;43.422;24.592;2023-03-19T17:01:28;100276.84;;;14.70;51.71
9035;BME280;4552;43.422;24.592;2023-03-19T17:03:55;100279.63;;;14.64;51.75
9035;BME280;4552;43.422;24.592;2023-03-19T17:23:43;100276.72;;;14.00;55.67
9035;BME280;4552;43.422;24.592;2023-03-19T17:26:15;100278.84;;;13.82;56.25
9035;BME280;4552;43.422;24.592;2023-03-19T17:28:43;100279.41;;;13.57;56.86
9035;BME280;4552;43.422;24.592;2023-03-19T17:31:21;100287.34;;;13.54;57.05
9035;BME280;4552;43.422;24.592;2023-03-19T17:33:49;100292.88;;;13.39;57.69
9035;BME280;4552;43.422;24.592;2023-03-19T17:36:17;100293.41;;;13.12;58.86
9035;BME280;4552;43.422;24.592;2023-03-19T17:38:46;100283.25;;;12.91;59.59
9035;BME280;4552;43.422;24.592;2023-03-19T17:41:14;100296.25;;;13.00;59.90
9035;BME280;4552;43.422;24.592;2023-03-19T17:43:44;100290.28;;;12.89;60.63
9035;BME280;4552;43.422;24.592;2023-03-19T17:46:14;100287.16;;;12.67;61.17
9035;BME280;4552;43.422;24.592;2023-03-19T17:48:42;100295.09;;;12.64;62.22
9035;BME280;4552;43.422;24.592;2023-03-19T17:51:10;100287.59;;;12.40;62.66
9035;BME280;4552;43.422;24.592;2023-03-19T17:53:37;100285.25;;;12.23;63.50
9035;BME280;4552;43.422;24.592;2023-03-19T17:56:08;100295.97;;;12.07;64.49
9035;BME280;4552;43.422;24.592;2023-03-19T17:58:39;100297.72;;;12.08;65.82
9035;BME280;4552;43.422;24.592;2023-03-19T18:01:10;100296.03;;;12.04;65.82
9035;BME280;4552;43.422;24.592;2023-03-19T18:03:39;100296.88;;;12.04;65.90
9035;BME280;4552;43.422;24.592;2023-03-19T18:06:13;100283.00;;;11.98;65.57
9035;BME280;4552;43.422;24.592;2023-03-19T18:08:41;100306.53;;;12.04;65.33
9035;BME280;4552;43.422;24.592;2023-03-19T18:11:10;100295.47;;;11.79;66.74
9035;BME280;4552;43.422;24.592;2023-03-19T18:13:40;100286.91;;;11.67;67.73
9035;BME280;4552;43.422;24.592;2023-03-19T18:16:19;100286.97;;;11.62;68.65
9035;BME280;4552;43.422;24.592;2023-03-19T18:18:49;100297.41;;;11.65;67.74
9035;BME280;4552;43.422;24.592;2023-03-19T18:21:16;100294.88;;;11.55;68.62
9035;BME280;4552;43.422;24.592;2023-03-19T18:39:30;100308.50;;;11.07;72.20
9035;BME280;4552;43.422;24.592;2023-03-19T18:42:05;100309.47;;;10.98;72.37
9035;BME280;4552;43.422;24.592;2023-03-19T18:44:32;100304.34;;;10.88;72.12
9035;BME280;4552;43.422;24.592;2023-03-19T18:46:59;100303.41;;;10.93;71.56
9035;BME280;4552;43.422;24.592;2023-03-19T18:49:26;100311.16;;;11.04;71.41
9035;BME280;4552;43.422;24.592;2023-03-19T18:51:53;100299.94;;;10.91;71.82
9035;BME280;4552;43.422;24.592;2023-03-19T18:54:20;100308.75;;;10.80;72.73
9035;BME280;4552;43.422;24.592;2023-03-19T18:56:49;100309.75;;;10.67;73.24
9035;BME280;4552;43.422;24.592;2023-03-19T18:59:21;100310.72;;;10.52;74.15
9035;BME280;4552;43.422;24.592;2023-03-19T19:01:58;100308.22;;;10.38;75.24
9035;BME280;4552;43.422;24.592;2023-03-19T19:04:29;100298.66;;;10.34;75.22
9035;BME280;4552;43.422;24.592;2023-03-19T19:06:58;100309.03;;;10.46;75.64
9035;BME280;4552;43.422;24.592;2023-03-19T19:09:28;100299.53;;;10.30;76.42
9035;BME280;4552;43.422;24.592;2023-03-19T19:11:58;100300.50;;;10.22;76.96
9035;BME280;4552;43.422;24.592;2023-03-19T19:14:26;100292.63;;;10.23;77.44
9035;BME280;4552;43.422;24.592;2023-03-19T19:16:54;100299.66;;;10.12;77.92
9035;BME280;4552;43.422;24.592;2023-03-19T19:19:23;100299.69;;;10.09;78.28
9035;BME280;4552;43.422;24.592;2023-03-19T19:21:51;100303.97;;;10.18;77.91
9035;BME280;4552;43.422;24.592;2023-03-19T19:24:18;100308.41;;;10.11;78.26
9035;BME280;4552;43.422;24.592;2023-03-19T19:26:47;100301.38;;;10.15;78.17
9035;BME280;4552;43.422;24.592;2023-03-19T19:29:22;100301.38;;;10.18;77.83
9035;BME280;4552;43.422;24.592;2023-03-19T19:31:52;100296.16;;;10.13;77.70
9035;BME280;4552;43.422;24.592;2023-03-19T20:00:29;100271.16;;;9.58;81.02
9035;BME280;4552;43.422;24.592;2023-03-19T20:02:58;100279.88;;;9.59;81.47
9035;BME280;4552;43.422;24.592;2023-03-19T20:05:27;100288.59;;;9.59;81.09
9035;BME280;4552;43.422;24.592;2023-03-19T20:07:56;100294.72;;;9.49;81.52
9035;BME280;4552;43.422;24.592;2023-03-19T20:10:25;100288.63;;;9.53;81.39
9035;BME280;4552;43.422;24.592;2023-03-19T20:12:54;100284.28;;;9.40;82.08
9035;BME280;4552;43.422;24.592;2023-03-19T20:15:24;100280.84;;;9.41;82.08
9035;BME280;4552;43.422;24.592;2023-03-19T20:17:53;100291.28;;;9.43;82.58
9035;BME280;4552;43.422;24.592;2023-03-19T20:20:23;100290.44;;;9.29;82.60
9035;BME280;4552;43.422;24.592;2023-03-19T20:22:52;100282.63;;;9.20;82.64
9035;BME280;4552;43.422;24.592;2023-03-19T20:25:20;100292.19;;;9.24;82.91
9035;BME280;4552;43.422;24.592;2023-03-19T20:27:49;100297.44;;;9.15;82.63
9035;BME280;4552;43.422;24.592;2023-03-19T20:30:21;100296.59;;;8.93;82.62
9035;BME280;4552;43.422;24.592;2023-03-19T20:32:49;100287.03;;;8.94;82.85
9035;BME280;4552;43.422;24.592;2023-03-19T20:35:22;100289.66;;;8.95;83.07
9035;BME280;4552;43.422;24.592;2023-03-19T20:37:49;100287.91;;;8.79;83.24
9035;BME280;4552;43.422;24.592;2023-03-19T20:40:17;100278.38;;;8.48;83.63
9035;BME280;4552;43.422;24.592;2023-03-19T20:42:49;100286.22;;;8.40;84.78
9035;BME280;4552;43.422;24.592;2023-03-19T20:45:18;100281.00;;;8.39;85.09
9035;BME280;4552;43.422;24.592;2023-03-19T20:47:47;100290.53;;;8.40;85.15
9035;BME280;4552;43.422;24.592;2023-03-19T20:50:21;100287.06;;;8.29;85.95
9035;BME280;4552;43.422;24.592;2023-03-19T20:52:49;100287.94;;;8.28;86.07
9035;BME280;4552;43.422;24.592;2023-03-19T20:55:19;100280.06;;;8.14;86.49
9035;BME280;4552;43.422;24.592;2023-03-19T20:57:49;100293.94;;;8.09;86.88
9035;BME280;4552;43.422;24.592;2023-03-19T21:00:23;100290.47;;;8.05;86.85
9035;BME280;4552;43.422;24.592;2023-03-19T21:02:51;100293.94;;;8.06;86.28
9035;BME280;4552;43.422;24.592;2023-03-19T21:12:09;100285.16;;;7.74;86.68
9035;BME280;4552;43.422;24.592;2023-03-19T21:14:49;100287.75;;;7.66;86.55
9035;BME280;4552;43.422;24.592;2023-03-19T21:17:16;100299.00;;;7.56;86.78
9035;BME280;4552;43.422;24.592;2023-03-19T21:33:46;100291.06;;;7.31;88.89
9035;BME280;4552;43.422;24.592;2023-03-19T21:36:14;100292.78;;;7.27;89.37
9035;BME280;4552;43.422;24.592;2023-03-19T21:38:44;100287.63;;;7.38;89.48
9035;BME280;4552;43.422;24.592;2023-03-19T21:41:18;100296.34;;;7.43;89.73
9035;BME280;4552;43.422;24.592;2023-03-19T21:43:49;100292.84;;;7.38;88.81
9035;BME280;4552;43.422;24.592;2023-03-19T21:46:18;100292.84;;;7.41;90.14
9035;BME280;4552;43.422;24.592;2023-03-19T21:48:49;100294.53;;;7.34;90.34
9035;BME280;4552;43.422;24.592;2023-03-19T21:58:19;100298.13;;;7.59;89.33
9035;BME280;4552;43.422;24.592;2023-03-19T22:00:47;100299.88;;;7.66;89.72
9035;BME280;4552;43.422;24.592;2023-03-19T22:03:17;100292.84;;;7.39;88.25
9035;BME280;4552;43.422;24.592;2023-03-19T22:05:46;100285.88;;;7.37;89.54
9035;BME280;4552;43.422;24.592;2023-03-19T22:08:14;100278.00;;;7.28;90.14
9035;BME280;4552;43.422;24.592;2023-03-19T22:10:43;100287.56;;;7.23;89.71
9035;BME280;4552;43.422;24.592;2023-03-19T22:13:17;100293.66;;;7.29;90.32
9035;BME280;4552;43.422;24.592;2023-03-19T22:15:47;100285.03;;;7.36;90.59
9035;BME280;4552;43.422;24.592;2023-03-19T22:18:15;100295.44;;;7.36;90.00
9035;BME280;4552;43.422;24.592;2023-03-19T22:20:42;100280.59;;;7.25;90.18
9035;BME280;4552;43.422;24.592;2023-03-19T22:23:12;100284.06;;;7.18;89.90
9035;BME280;4552;43.422;24.592;2023-03-19T22:25:41;100287.56;;;7.26;88.99
9035;BME280;4552;43.422;24.592;2023-03-19T22:28:15;100293.56;;;7.16;88.81
9035;BME280;4552;43.422;24.592;2023-03-19T22:30:43;100283.00;;;6.87;89.98
9035;BME280;4552;43.422;24.592;2023-03-19T22:33:13;100289.03;;;6.80;90.49
9035;BME280;4552;43.422;24.592;2023-03-19T23:14:14;100277.63;;;6.60;93.45
9035;BME280;4552;43.422;24.592;2023-03-19T23:16:42;100270.44;;;6.32;93.53
9035;BME280;4552;43.422;24.592;2023-03-19T23:19:16;100266.00;;;6.17;93.73
9035;BME280;4552;43.422;24.592;2023-03-19T23:21:44;100271.25;;;6.23;95.25
9035;BME280;4552;43.422;24.592;2023-03-19T23:24:13;100265.22;;;6.30;95.43
9035;BME280;4552;43.422;24.592;2023-03-19T23:26:42;100267.66;;;6.12;94.77
9035;BME280;4552;43.422;24.592;2023-03-19T23:29:18;100265.03;;;6.08;95.07
9035;BME280;4552;43.422;24.592;2023-03-19T23:31:46;100264.94;;;5.99;94.39
9035;BME280;4552;43.422;24.592;2023-03-19T23:34:14;100251.94;;;5.97;94.49
9035;BME280;4552;43.422;24.592;2023-03-19T23:36:42;100264.09;;;6.01;94.54
9035;BME280;4552;43.422;24.592;2023-03-19T23:39:09;100253.53;;;5.83;94.54
9035;BME280;4552;43.422;24.592;2023-03-19T23:41:40;100240.44;;;5.76;95.07
9035;BME280;4552;43.422;24.592;2023-03-19T23:44:12;100237.81;;;5.74;95.23
9035;BME280;4552;43.422;24.592;2023-03-19T23:46:41;100249.94;;;5.75;95.14
9035;BME280;4552;43.422;24.592;2023-03-19T23:49:11;100256.94;;;5.79;95.40
